< < Back
Terminal Aerodrome Forecast


Current Version              Previous Versions:   1  2  3  4  5  6  7  8  9  

Terminal Aerodrome Forecast

874
FTUS44 KBMX 111133
TAFANB
TAF
KANB 111133Z 1112/1212 05004KT P6SM SKC
     FM111700 35005KT P6SM SCT050
     FM120000 05004KT P6SM BKN050=

Latest METAR

794
SAUS70 KWBC 112100 RRE
MTRANB
METAR KANB 112053Z AUTO 00000KT 10SM CLR 14/M04 A3013 RMK AO2 SLP210
T01391039 56004


USA.gov is the U.S. government's official web portal to all federal, state and local government web resources and services.